Rockport, ME (04856)

3:35 PM EDT on July 07, 2015 (GMT -0400)
Wayfarer Marine | | Change Station
CLOSE
Current Station
Personal Weather Station
Location: Camden, ME
Elevation: 15 ft
Nearby Weather Stations

Elev 15 ft 44.21 °N, 69.06 °W | Updated 12 minutes ago

Clear
Clear
73.8 °F
Feels Like 74 °F
N
7.0
Wind Variable Wind from SSE
Gusts 14.0 mph

Today
High -- | Low -- °F
--% Chance of Precip.
Yesterday
High -- | Low -- °F
Precip. -- in
5:00 AM 8:21 PM
Waning Gibbous, 62% visible
Pressure 30.05 in
Visibility 10.0 miles
Clouds Scattered Clouds 3000 ft
Mostly Cloudy 3700 ft
Heat Index 74 °F
Dew Point 68 °F
Humidity 81%
Rainfall 0.00 in
Snow Depth Not available.
UV 4 out of 12
Pollen 4.30 out of 12
Air Quality Not available.
Flu Activity Not available.
METAR KRKD 071915Z AUTO 19011KT 10SM SCT030 BKN037 19/16 A3005 RMK AO1

More Conditions Fewer Conditions

Pressure 30.05 in
Visibility 10.0 miles
Clouds Scattered Clouds 3000 ft
Mostly Cloudy 3700 ft
Heat Index 74 °F
Dew Point 68 °F
Humidity 81%
Rainfall 0.00 in
Snow Depth Not available.
UV 4 out of 12
Pollen 4.30 out of 12
Air Quality Not available.
Flu Activity Not available.
METAR KRKD 071915Z AUTO 19011KT 10SM SCT030 BKN037 19/16 A3005 RMK AO1

More Conditions Fewer Conditions

10-Day Weather Forecast

×

Almanac

Astronomy

Jul. 07, 2015 Rise Set
Actual Time
Civil Twilight
Nautical Twilight
Astronomical Twilight
Moon
Length of Visible Light
Length of Day
Tomorrow will be .
, % of the Moon is Illuminated

Today's Extremes

State Highs State Lows

Community

WunderPhotos

Upload Photos

1,835,880 photos uploaded!

WunderBlogs® & News

Nearby

Air Quality

  Air Quality AQ Index Pollutant
Not available.

Snow Depth

Station Depth Elevation

Earthquake Activity

City Distance Mag. Time & Date
Minimum magnitude displayed is 2.5.

Coastal Water Temperatures

Place Temperature

Stations

Nearby Weather Stations

Station Location Temp. Windchill Dew Point Humidity Wind Precip. Elev Updated Type